createdAt,value
2017-10-18T00:01:15.096Z,4.57
2017-10-18T00:03:48.450Z,4.37
2017-10-18T00:06:21.028Z,4.60
2017-10-18T00:08:53.617Z,7.50
2017-10-18T00:11:26.255Z,7.47
2017-10-18T00:13:58.928Z,7.60
2017-10-18T00:16:31.403Z,6.47
2017-10-18T00:19:03.957Z,5.20
2017-10-18T00:21:37.164Z,13.73
2017-10-18T00:24:09.841Z,6.00
2017-10-18T00:26:42.348Z,5.13
2017-10-18T00:29:14.927Z,6.63
2017-10-18T00:31:47.489Z,7.87
2017-10-18T00:34:19.868Z,3.80
2017-10-18T00:36:52.435Z,5.50
2017-10-18T00:39:24.831Z,10.60
2017-10-18T00:41:57.409Z,4.47
2017-10-18T00:44:30.035Z,6.63
2017-10-18T00:47:02.762Z,6.60
2017-10-18T00:49:35.229Z,3.87
2017-10-18T00:52:07.769Z,4.43
2017-10-18T00:54:40.414Z,6.13
2017-10-18T00:57:12.925Z,10.20
2017-10-18T00:59:45.523Z,7.40
2017-10-18T01:02:18.076Z,3.73
2017-10-18T01:04:50.556Z,6.00
2017-10-18T01:07:23.290Z,5.60
2017-10-18T01:09:56.652Z,4.13
2017-10-18T01:12:29.138Z,5.47
2017-10-18T01:15:01.489Z,8.40
2017-10-18T01:17:33.875Z,7.20
2017-10-18T01:20:06.319Z,5.20
2017-10-18T01:22:39.016Z,9.13
2017-10-18T01:25:11.835Z,3.83
2017-10-18T01:27:44.478Z,6.13
2017-10-18T01:30:17.733Z,5.00
2017-10-18T01:32:50.484Z,4.90
2017-10-18T01:35:22.935Z,3.60
2017-10-18T01:37:55.301Z,3.93
2017-10-18T01:40:27.792Z,4.80
2017-10-18T01:43:00.361Z,5.87
2017-10-18T01:45:32.801Z,3.80
2017-10-18T01:48:06.138Z,4.20
2017-10-18T01:50:38.631Z,4.93
2017-10-18T01:53:11.162Z,4.70
2017-10-18T01:55:43.623Z,4.07
2017-10-18T01:58:16.444Z,10.77
2017-10-18T02:00:49.739Z,5.90
2017-10-18T02:03:22.508Z,5.90
2017-10-18T02:05:54.984Z,2.90
2017-10-18T02:08:27.346Z,5.03
2017-10-18T02:11:00.527Z,4.77
2017-10-18T02:13:34.216Z,4.37
2017-10-18T02:16:06.996Z,4.07
2017-10-18T02:18:39.590Z,5.07
2017-10-18T02:21:12.948Z,6.40
2017-10-18T02:23:45.488Z,3.50
2017-10-18T02:26:18.047Z,4.47
2017-10-18T02:28:50.646Z,3.70
2017-10-18T02:31:23.222Z,4.70
2017-10-18T02:33:55.721Z,4.50
2017-10-18T02:36:28.192Z,3.77
2017-10-18T02:39:00.867Z,5.93
2017-10-18T02:41:34.148Z,9.70
2017-10-18T02:44:07.750Z,5.20
2017-10-18T02:46:40.324Z,3.97
2017-10-18T02:49:12.868Z,4.60
2017-10-18T02:51:45.453Z,6.30
2017-10-18T02:54:18.164Z,4.17
2017-10-18T02:56:50.807Z,4.50
2017-10-18T02:59:23.633Z,6.10
2017-10-18T03:01:57.043Z,4.63
2017-10-18T03:04:30.019Z,4.87
2017-10-18T03:07:02.618Z,3.73
2017-10-18T03:09:36.182Z,3.60
2017-10-18T03:12:08.923Z,3.37
2017-10-18T03:14:41.642Z,5.13
2017-10-18T03:17:14.984Z,9.93
2017-10-18T03:19:48.366Z,4.10
2017-10-18T03:22:21.986Z,5.00
2017-10-18T03:24:55.060Z,4.40
2017-10-18T03:27:28.478Z,5.13
2017-10-18T03:30:00.931Z,5.87
2017-10-18T03:32:33.416Z,3.53
2017-10-18T03:35:05.884Z,3.60
2017-10-18T03:37:39.300Z,4.30
2017-10-18T03:40:12.800Z,4.00
2017-10-18T03:42:45.271Z,6.37
2017-10-18T03:45:17.719Z,3.00
2017-10-18T03:47:50.977Z,5.77
2017-10-18T03:50:23.713Z,7.20
2017-10-18T03:52:56.406Z,4.23
2017-10-18T03:55:29.008Z,3.70
2017-10-18T03:58:02.752Z,3.30
2017-10-18T04:00:35.575Z,4.27
2017-10-18T04:03:08.143Z,3.13
2017-10-18T04:05:40.841Z,5.50
2017-10-18T04:08:13.268Z,4.37
2017-10-18T04:10:45.652Z,3.30
2017-10-18T04:13:18.189Z,4.57
2017-10-18T04:15:50.690Z,3.40
2017-10-18T04:18:23.112Z,4.87
2017-10-18T04:20:55.846Z,5.10
2017-10-18T04:23:28.202Z,3.03
2017-10-18T04:26:00.681Z,3.27
2017-10-18T04:28:33.289Z,3.83
2017-10-18T04:31:05.847Z,3.83
2017-10-18T04:33:38.422Z,3.17
2017-10-18T04:36:10.972Z,4.00
2017-10-18T04:38:43.544Z,2.60
2017-10-18T04:41:16.201Z,5.03
2017-10-18T04:43:48.775Z,4.00
2017-10-18T04:46:22.166Z,2.57
2017-10-18T04:48:54.908Z,7.30
2017-10-18T04:51:28.055Z,6.60
2017-10-18T04:54:00.910Z,5.00
2017-10-18T04:56:33.559Z,5.27
2017-10-18T04:59:06.248Z,6.20
2017-10-18T05:01:38.681Z,6.30
2017-10-18T05:04:11.203Z,5.20
2017-10-18T05:06:43.890Z,6.00
2017-10-18T05:09:16.280Z,7.00
2017-10-18T05:11:49.560Z,7.23
2017-10-18T05:14:22.305Z,4.03
2017-10-18T05:16:55.070Z,5.13
2017-10-18T05:19:28.363Z,8.13
2017-10-18T05:22:01.124Z,4.70
2017-10-18T05:24:33.719Z,4.37
2017-10-18T05:27:06.272Z,5.53
2017-10-18T05:29:38.850Z,7.27
2017-10-18T05:32:11.508Z,4.50
2017-10-18T05:34:43.912Z,4.47
2017-10-18T05:37:18.049Z,8.43
2017-10-18T05:39:51.037Z,4.17
2017-10-18T05:42:23.482Z,4.13
2017-10-18T05:44:56.770Z,5.30
2017-10-18T05:47:29.206Z,4.03
2017-10-18T05:50:01.555Z,5.30
2017-10-18T05:52:34.901Z,4.10
2017-10-18T05:55:07.444Z,6.40
2017-10-18T05:57:40.029Z,5.33
2017-10-18T06:00:12.496Z,7.03
2017-10-18T06:02:45.805Z,7.00
2017-10-18T06:05:18.654Z,4.93
2017-10-18T06:07:51.718Z,6.40
2017-10-18T06:10:25.357Z,4.57
2017-10-18T06:12:58.865Z,7.40
2017-10-18T06:15:31.860Z,7.00
2017-10-18T06:18:05.421Z,4.47
2017-10-18T06:20:39.595Z,6.07
2017-10-18T06:23:12.288Z,4.80
2017-10-18T06:25:44.899Z,3.97
2017-10-18T06:28:17.512Z,6.93
2017-10-18T06:30:49.965Z,4.47
2017-10-18T06:33:22.603Z,3.93
2017-10-18T06:35:55.135Z,5.93
2017-10-18T06:38:27.728Z,4.63
2017-10-18T06:41:00.272Z,5.17
2017-10-18T06:43:33.777Z,6.10
2017-10-18T06:46:06.620Z,4.37
2017-10-18T06:48:40.060Z,8.80
2017-10-18T06:51:13.332Z,8.10
2017-10-18T06:53:45.910Z,9.90
2017-10-18T06:56:19.197Z,4.63
2017-10-18T06:58:52.810Z,5.97
2017-10-18T07:01:25.726Z,10.10
2017-10-18T07:03:58.269Z,8.77
2017-10-18T07:06:31.024Z,6.03
2017-10-18T07:09:03.720Z,4.70
2017-10-18T07:11:37.028Z,5.40
2017-10-18T07:14:10.344Z,14.73
2017-10-18T07:16:43.153Z,4.93
2017-10-18T07:19:15.745Z,5.43
2017-10-18T07:21:48.158Z,8.23
2017-10-18T07:24:20.874Z,4.40
2017-10-18T07:26:53.451Z,3.37
2017-10-18T07:29:25.959Z,4.70
2017-10-18T07:31:58.313Z,4.27
2017-10-18T07:34:30.957Z,6.20
2017-10-18T07:37:03.597Z,5.80
2017-10-18T07:39:36.274Z,5.67
2017-10-18T07:42:08.791Z,5.17
2017-10-18T07:44:41.370Z,3.63
2017-10-18T07:47:13.775Z,5.23
2017-10-18T07:49:46.250Z,3.93
2017-10-18T07:52:18.747Z,7.20
2017-10-18T07:54:51.330Z,5.87
2017-10-18T07:57:23.918Z,9.20
2017-10-18T07:59:56.329Z,7.40
2017-10-18T08:02:28.898Z,8.00
2017-10-18T08:05:01.572Z,4.67
2017-10-18T08:07:34.040Z,4.83
2017-10-18T08:10:06.684Z,7.03
2017-10-18T08:12:39.976Z,3.70
2017-10-18T08:15:12.803Z,5.13
2017-10-18T08:17:45.303Z,5.73
2017-10-18T08:20:17.832Z,9.23
2017-10-18T08:22:51.167Z,3.73
2017-10-18T08:25:23.925Z,6.23
2017-10-18T08:27:56.434Z,3.13
2017-10-18T08:30:29.467Z,8.17
2017-10-18T08:33:01.919Z,3.60
2017-10-18T08:35:34.463Z,5.97
2017-10-18T08:38:06.877Z,2.73
2017-10-18T08:40:39.476Z,8.53
2017-10-18T08:43:13.104Z,8.40
2017-10-18T08:45:46.115Z,4.20
2017-10-18T08:48:18.572Z,6.70
2017-10-18T08:50:51.369Z,9.20
2017-10-18T08:53:24.657Z,9.37
2017-10-18T08:55:57.984Z,4.43
2017-10-18T08:58:31.301Z,5.57
2017-10-18T09:01:04.425Z,2.83
2017-10-18T09:03:36.931Z,4.63
2017-10-18T09:06:09.458Z,9.00
2017-10-18T09:08:42.108Z,3.53
2017-10-18T09:11:14.562Z,10.77
2017-10-18T09:13:47.233Z,4.33
2017-10-18T09:16:19.728Z,7.03
2017-10-18T09:18:59.320Z,6.27
2017-10-18T09:21:31.938Z,7.03
2017-10-18T09:24:04.275Z,8.67
2017-10-18T09:26:36.781Z,7.67
2017-10-18T09:29:09.178Z,6.67
2017-10-18T09:31:41.837Z,9.53
2017-10-18T09:34:15.366Z,10.03
2017-10-18T09:36:48.281Z,7.40
2017-10-18T09:39:20.803Z,8.43
2017-10-18T09:41:53.525Z,13.73
2017-10-18T09:44:26.215Z,11.17
2017-10-18T09:46:58.954Z,13.37
2017-10-18T09:49:31.716Z,20.07
2017-10-18T09:52:04.222Z,9.60
2017-10-18T09:54:36.684Z,9.47
2017-10-18T09:57:09.941Z,11.97
2017-10-18T09:59:43.648Z,13.07
2017-10-18T10:02:16.523Z,15.27
2017-10-18T10:04:48.924Z,13.63
2017-10-18T10:07:21.440Z,9.60
2017-10-18T10:09:54.153Z,7.17
2017-10-18T10:12:26.768Z,10.33
2017-10-18T10:15:00.157Z,15.50
2017-10-18T10:17:33.414Z,11.03
2017-10-18T10:20:06.327Z,11.07
2017-10-18T10:22:38.992Z,9.20
2017-10-18T10:25:11.688Z,6.87
2017-10-18T10:27:44.908Z,15.07
2017-10-18T10:30:17.620Z,20.10
2017-10-18T10:32:50.222Z,9.87
2017-10-18T10:35:23.497Z,8.77
2017-10-18T10:37:56.062Z,10.47
2017-10-18T10:40:28.650Z,7.83
2017-10-18T10:43:01.332Z,6.00
2017-10-18T10:45:34.048Z,8.77
2017-10-18T10:48:06.599Z,9.47
2017-10-18T10:50:39.949Z,6.63
2017-10-18T10:53:13.660Z,6.17
2017-10-18T10:55:46.563Z,16.43
2017-10-18T10:58:19.158Z,8.27
2017-10-18T11:00:52.311Z,8.50
2017-10-18T11:03:25.210Z,8.40
2017-10-18T11:05:58.412Z,6.30
2017-10-18T11:08:31.306Z,9.70
2017-10-18T11:11:03.825Z,10.17
2017-10-18T11:13:36.308Z,5.27
2017-10-18T11:16:09.084Z,10.37
2017-10-18T11:18:41.680Z,8.70
2017-10-18T11:21:14.287Z,9.10
2017-10-18T11:23:47.468Z,10.47
2017-10-18T11:26:21.026Z,9.93
2017-10-18T11:28:53.806Z,9.60
2017-10-18T11:31:26.495Z,17.17
2017-10-18T11:33:59.675Z,11.60
2017-10-18T11:36:32.475Z,10.30
2017-10-18T11:39:05.097Z,9.47
2017-10-18T11:41:37.485Z,10.27
2017-10-18T11:44:10.879Z,7.47
2017-10-18T11:46:44.092Z,6.23
2017-10-18T11:49:16.923Z,10.50
2017-10-18T11:51:50.263Z,7.27
2017-10-18T11:54:22.694Z,7.63
2017-10-18T11:56:56.037Z,10.77
2017-10-18T11:59:28.878Z,6.00
2017-10-18T12:02:02.224Z,10.63
2017-10-18T12:04:34.958Z,10.13
2017-10-18T12:07:08.152Z,5.77
2017-10-18T12:09:41.023Z,6.43
2017-10-18T12:12:14.426Z,8.17
2017-10-18T12:14:46.944Z,6.27
2017-10-18T12:17:20.205Z,5.73
2017-10-18T12:19:53.106Z,4.33
2017-10-18T12:22:25.621Z,5.60
2017-10-18T12:24:58.300Z,8.77
2017-10-18T12:27:30.793Z,8.67
2017-10-18T12:30:03.387Z,8.50
2017-10-18T12:32:36.880Z,7.63
2017-10-18T12:35:09.763Z,10.27
2017-10-18T12:37:42.228Z,7.50
2017-10-18T12:40:15.532Z,14.40
2017-10-18T12:42:48.558Z,15.40
2017-10-18T12:45:20.968Z,10.97
2017-10-18T12:47:54.224Z,12.37
2017-10-18T12:50:27.101Z,7.90
2017-10-18T12:52:59.560Z,12.10
2017-10-18T12:55:33.658Z,6.10
2017-10-18T12:58:07.389Z,4.83
2017-10-18T13:00:39.963Z,6.90
2017-10-18T13:03:12.398Z,15.20
2017-10-18T13:05:45.695Z,9.63
2017-10-18T13:08:18.217Z,8.03
2017-10-18T13:10:51.900Z,7.83
2017-10-18T13:13:25.858Z,4.80
2017-10-18T13:15:58.581Z,10.30
2017-10-18T13:18:31.065Z,8.40
2017-10-18T13:21:03.549Z,9.70
2017-10-18T13:23:36.832Z,6.77
2017-10-18T13:26:09.573Z,6.20
2017-10-18T13:28:42.916Z,6.53
2017-10-18T13:31:15.374Z,6.43
2017-10-18T13:33:48.616Z,7.23
2017-10-18T13:36:21.311Z,10.33
2017-10-18T13:38:53.972Z,12.40
2017-10-18T13:41:26.608Z,6.73
2017-10-18T13:43:59.177Z,5.27
2017-10-18T13:46:32.536Z,5.83
2017-10-18T13:49:05.344Z,7.33
2017-10-18T13:51:37.900Z,13.80
2017-10-18T13:54:10.588Z,8.80
2017-10-18T13:56:43.236Z,6.73
2017-10-18T13:59:15.700Z,10.43
2017-10-18T14:01:48.218Z,8.30
2017-10-18T14:04:20.697Z,11.57
2017-10-18T14:06:53.230Z,11.50
2017-10-18T14:09:25.724Z,13.77
2017-10-18T14:11:58.945Z,9.80
2017-10-18T14:14:31.769Z,8.83
2017-10-18T14:17:04.334Z,9.07
2017-10-18T14:19:38.467Z,8.57
2017-10-18T14:22:11.192Z,9.43
2017-10-18T14:24:43.830Z,12.30
2017-10-18T14:27:16.469Z,12.10
2017-10-18T14:29:49.027Z,8.90
2017-10-18T14:32:22.491Z,9.77
2017-10-18T14:34:55.056Z,9.57
2017-10-18T14:37:27.569Z,10.30
2017-10-18T14:40:00.236Z,6.80
2017-10-18T14:42:32.714Z,11.80
2017-10-18T14:45:05.110Z,7.40
2017-10-18T14:47:37.656Z,5.90
2017-10-18T14:50:10.243Z,10.30
2017-10-18T14:52:42.890Z,6.60
2017-10-18T14:55:15.483Z,19.80
2017-10-18T14:57:48.154Z,13.83
2017-10-18T15:00:20.818Z,15.70
2017-10-18T15:02:53.199Z,11.80
2017-10-18T15:05:27.744Z,12.03
2017-10-18T15:08:00.261Z,11.50
2017-10-18T15:10:32.780Z,9.27
2017-10-18T15:13:05.171Z,10.27
2017-10-18T15:15:37.794Z,9.40
2017-10-18T15:18:17.360Z,10.63
2017-10-18T15:20:50.676Z,8.40
2017-10-18T15:23:23.280Z,15.53
2017-10-18T15:25:56.551Z,18.30
2017-10-18T15:28:29.285Z,7.30
2017-10-18T15:31:01.774Z,7.37
2017-10-18T15:33:35.096Z,6.30
2017-10-18T15:36:07.562Z,9.50
2017-10-18T15:38:40.020Z,9.43
2017-10-18T15:41:12.556Z,9.40
2017-10-18T15:43:45.104Z,17.27
2017-10-18T15:46:18.337Z,18.37
2017-10-18T15:48:51.100Z,12.53
2017-10-18T15:51:23.647Z,19.23
2017-10-18T15:53:56.983Z,8.60
2017-10-18T15:56:29.877Z,9.20
2017-10-18T15:59:02.670Z,8.77
2017-10-18T16:01:35.364Z,8.03
2017-10-18T16:04:08.009Z,14.00
2017-10-18T16:06:47.766Z,8.17
2017-10-18T16:09:20.332Z,11.20
2017-10-18T16:11:52.744Z,9.10
2017-10-18T16:14:25.493Z,10.07
2017-10-18T16:16:58.364Z,6.87
2017-10-18T16:19:30.789Z,10.77
2017-10-18T16:22:03.382Z,7.63
2017-10-18T16:24:36.752Z,6.07
2017-10-18T16:27:09.520Z,11.20
2017-10-18T16:29:42.883Z,14.27
2017-10-18T16:32:15.710Z,9.47
2017-10-18T16:34:49.210Z,6.20
2017-10-18T16:37:21.856Z,8.07
2017-10-18T16:39:54.293Z,6.37
2017-10-18T16:42:27.546Z,8.87
2017-10-18T16:45:00.268Z,6.50
2017-10-18T16:47:32.739Z,7.67
2017-10-18T16:50:05.296Z,9.17
2017-10-18T16:52:37.676Z,11.13
2017-10-18T16:55:10.321Z,14.20
2017-10-18T16:57:42.883Z,7.30
2017-10-18T17:00:15.320Z,10.00
2017-10-18T17:02:47.825Z,10.03
2017-10-18T17:05:20.487Z,8.47
2017-10-18T17:07:52.979Z,7.87
2017-10-18T17:10:25.466Z,9.13
2017-10-18T17:12:58.072Z,9.40
2017-10-18T17:15:30.894Z,14.53
2017-10-18T17:18:03.306Z,16.93
2017-10-18T17:20:35.887Z,11.00
2017-10-18T17:23:08.492Z,10.10
2017-10-18T17:25:48.132Z,17.63
2017-10-18T17:28:20.960Z,8.17
2017-10-18T17:30:53.535Z,15.70
2017-10-18T17:33:25.988Z,10.53
2017-10-18T17:35:58.595Z,8.87
2017-10-18T17:38:31.145Z,16.57
2017-10-18T17:41:04.294Z,15.50
2017-10-18T17:43:37.679Z,14.70
2017-10-18T17:46:10.604Z,12.73
2017-10-18T17:48:43.099Z,15.00
2017-10-18T17:51:17.419Z,17.20
2017-10-18T17:53:50.198Z,13.93
2017-10-18T17:56:22.776Z,18.20
2017-10-18T17:58:55.601Z,16.20
2017-10-18T18:01:28.805Z,20.10
2017-10-18T18:10:11.165Z,17.93
2017-10-18T18:12:44.041Z,20.70
2017-10-18T18:15:16.580Z,29.97
2017-10-18T18:17:51.805Z,21.70
2017-10-18T18:20:24.858Z,18.13
2017-10-18T18:22:58.150Z,21.67
2017-10-18T18:25:32.182Z,24.50
2017-10-18T18:28:05.898Z,25.10
2017-10-18T18:30:39.131Z,16.77
2017-10-18T18:33:12.493Z,19.20
2017-10-18T18:35:45.877Z,19.77
2017-10-18T18:38:18.489Z,20.90
2017-10-18T18:40:52.078Z,20.63
2017-10-18T18:43:25.427Z,19.17
2017-10-18T18:45:58.718Z,23.77
2017-10-18T18:48:32.152Z,22.27
2017-10-18T18:51:06.561Z,19.97
2017-10-18T18:53:40.227Z,15.40
2017-10-18T18:56:14.134Z,20.97
2017-10-18T18:58:47.328Z,20.73
2017-10-18T19:01:20.777Z,24.13
2017-10-18T19:03:53.253Z,16.50
2017-10-18T19:06:25.943Z,18.73
2017-10-18T19:09:00.566Z,18.40
2017-10-18T19:11:33.439Z,16.70
2017-10-18T19:14:06.089Z,15.57
2017-10-18T19:16:39.169Z,20.67
2017-10-18T19:19:11.719Z,17.80
2017-10-18T19:21:45.171Z,15.23
2017-10-18T19:24:18.074Z,17.90
2017-10-18T19:26:52.876Z,18.97
2017-10-18T19:29:26.569Z,18.50
2017-10-18T19:31:59.379Z,16.77
2017-10-18T19:34:32.893Z,22.17
2017-10-18T19:37:05.617Z,15.30
2017-10-18T19:39:38.455Z,22.07
2017-10-18T19:45:16.418Z,20.40
2017-10-18T19:47:51.776Z,15.50
2017-10-18T19:50:27.232Z,19.20
2017-10-18T19:53:01.926Z,19.10
2017-10-18T19:55:36.051Z,16.93
2017-10-18T19:58:10.662Z,17.10
2017-10-18T20:00:45.286Z,15.70
2017-10-18T20:03:20.225Z,20.30
2017-10-18T20:05:55.315Z,17.70
2017-10-18T20:08:30.587Z,22.03
2017-10-18T20:11:05.585Z,17.90
2017-10-18T20:13:40.231Z,15.57
2017-10-18T20:16:14.916Z,16.47
2017-10-18T20:18:50.161Z,24.23
2017-10-18T20:21:24.906Z,25.70
2017-10-18T20:24:00.178Z,15.47
2017-10-18T20:26:35.240Z,27.30
2017-10-18T20:29:09.825Z,21.50
2017-10-18T20:31:43.840Z,13.93
2017-10-18T20:34:19.338Z,22.47
2017-10-18T20:36:55.177Z,20.90
2017-10-18T20:39:29.977Z,20.90
2017-10-18T20:42:04.765Z,23.93
2017-10-18T20:44:39.403Z,16.70
2017-10-18T20:47:14.421Z,18.50
2017-10-18T20:49:49.045Z,20.40
2017-10-18T20:52:23.891Z,23.57
2017-10-18T20:54:58.770Z,19.90
2017-10-18T20:57:32.199Z,27.20
2017-10-18T21:00:06.265Z,25.97
2017-10-18T21:02:38.932Z,23.13
2017-10-18T21:05:12.303Z,16.67
2017-10-18T21:07:44.988Z,12.53
2017-10-18T21:10:18.158Z,18.33
2017-10-18T21:12:50.965Z,17.80
2017-10-18T21:15:23.541Z,12.83
2017-10-18T21:17:57.684Z,18.83
2017-10-18T21:20:30.566Z,14.70
2017-10-18T21:23:03.311Z,14.60
2017-10-18T21:25:36.689Z,23.20
2017-10-18T21:28:10.323Z,16.00
2017-10-18T21:30:43.020Z,16.33
2017-10-18T21:33:15.474Z,13.60
2017-10-18T21:35:48.060Z,13.93
2017-10-18T21:38:20.938Z,17.77
2017-10-18T21:40:53.400Z,16.93
2017-10-18T21:43:27.096Z,16.20
2017-10-18T21:46:00.215Z,13.93
2017-10-18T21:48:33.021Z,13.23
2017-10-18T21:51:05.650Z,18.67
2017-10-18T21:53:38.398Z,13.50
2017-10-18T21:56:11.134Z,12.17
2017-10-18T21:58:43.797Z,12.30
2017-10-18T22:01:16.468Z,13.03
2017-10-18T22:03:49.192Z,13.60
2017-10-18T22:06:21.865Z,15.33
2017-10-18T22:08:54.987Z,12.47
2017-10-18T22:11:27.461Z,14.63
2017-10-18T22:14:00.154Z,10.20
2017-10-18T22:16:32.626Z,9.87
2017-10-18T22:19:05.405Z,11.97
2017-10-18T22:21:37.866Z,14.00
2017-10-18T22:24:10.570Z,9.60
2017-10-18T22:26:43.834Z,12.27
2017-10-18T22:29:17.184Z,11.37
2017-10-18T22:31:49.902Z,13.50
2017-10-18T22:34:23.272Z,11.60
2017-10-18T22:36:55.984Z,14.63
2017-10-18T22:39:28.814Z,9.50
2017-10-18T22:42:02.765Z,11.67
2017-10-18T22:44:35.354Z,10.87
2017-10-18T22:47:07.793Z,10.43
2017-10-18T22:49:41.216Z,12.20
2017-10-18T22:52:14.288Z,12.80
2017-10-18T22:54:47.058Z,11.50
2017-10-18T22:57:19.723Z,16.00
2017-10-18T22:59:52.499Z,9.20
2017-10-18T23:02:25.917Z,13.20
2017-10-18T23:04:58.750Z,9.53
2017-10-18T23:07:31.329Z,8.97
2017-10-18T23:10:04.560Z,10.83
2017-10-18T23:12:38.131Z,8.37
2017-10-18T23:15:12.009Z,10.07
2017-10-18T23:17:45.659Z,8.37
2017-10-18T23:20:18.587Z,9.77
2017-10-18T23:22:51.158Z,11.43
2017-10-18T23:25:23.708Z,10.23
2017-10-18T23:27:56.212Z,10.90
2017-10-18T23:30:28.717Z,13.13
2017-10-18T23:33:01.293Z,9.20
2017-10-18T23:35:33.894Z,9.60
2017-10-18T23:38:06.485Z,9.57
2017-10-18T23:40:39.877Z,12.40
2017-10-18T23:43:13.497Z,10.90
2017-10-18T23:45:46.464Z,20.23
2017-10-18T23:48:18.874Z,9.13
2017-10-18T23:50:51.464Z,10.87
2017-10-18T23:53:24.200Z,10.00
2017-10-18T23:55:56.752Z,11.37
2017-10-18T23:58:29.337Z,7.87
